Etusivu
METAR-TAF:

METAR-TAF

Lentoasemat :

Karachi, Pakistan

Leveyspiiri: 24-54N, Pituuspiiri: 067-08E, korkeus merenpinnasta: 21 m

Tämänhetkinen sää

Tämä raportti tehtiin 1 tunti ja 5 minuuttia sitten, kello 12.25 UTC
Tuuli 12 kn lännestä/lounaasta
Lämpötila 41°C
Kosteus 7%
Ilmanpaine 1003 hPa
Näkyvyys: 5000 m
laajalle levinnyttä pölyä

METAR: OPKC 201225Z 24012KT 5000 DU NSC 41/M01 Q1003 NOSIG

Aika: 18:30 (13:30 UTC)

Sääennuste

Tämä raportti tehtiin 3 tuntia ja 30 minuuttia sitten, kello 10.00 UTC
Ennuste voimassa 20. päivästä klo 12 UTC - 21. päivään klo 18 UTC
Tuuli 5 kn lännestä puuskistuen 15 kn:hen
Näkyvyys: 5000 m
usvaa
From UTC
Tuuli 13 kn pohjoisesta
Näkyvyys: 4000 m
usvaa
From UTC
Tuuli 5 kn lännestä puuskistuen 15 kn:hen
Näkyvyys: 6000 m

TAF: OPKC 201000Z 2012/2118 28005G15KT 5000 HZ NSC FM 022000 36013KT 4000 HZ NSC FM 210800 26005G15KT 6000 NSC

Säähavainnot ja -ennusteet yli 4000 lentoasemalta (METAR- ja TAF-raportit).

Käytössä olevat sääasemat on merkitty karttaan keltaisilla ja punaisilla pisteillä.

Aseta hiiri pisteen päälle nähdäksesi sääaseman nimen.

Klikkaa sitten nähdäksesi säähavainnot ja -ennusteet.

Kartan vaihtaminen: klikkaa mustalla rastilla varustettuja vihreitä pisteitä, niin voit zoomata sisään; viivalla varustettua vihreää pistettä, niin voit zoomata ulos tai vihreitä nuolia, niin pääset viereisille kartoille.


METAR-TAF: